createdAt,value
2018-04-25T00:00:37.919Z,7.40
2018-04-25T00:01:38.121Z,6.40
2018-04-25T00:02:38.340Z,5.60
2018-04-25T00:03:38.561Z,5.70
2018-04-25T00:04:41.579Z,6.00
2018-04-25T00:05:38.930Z,6.20
2018-04-25T00:06:39.147Z,5.90
2018-04-25T00:07:39.352Z,5.10
2018-04-25T00:08:39.583Z,4.40
2018-04-25T00:09:39.793Z,5.30
2018-04-25T00:10:39.995Z,6.40
2018-04-25T00:11:40.226Z,5.30
2018-04-25T00:12:40.432Z,5.30
2018-04-25T00:13:42.573Z,6.20
2018-04-25T00:14:40.780Z,5.00
2018-04-25T00:15:40.988Z,5.90
2018-04-25T00:16:43.074Z,5.00
2018-04-25T00:17:41.417Z,4.70
2018-04-25T00:18:41.624Z,4.00
2018-04-25T00:19:41.842Z,5.00
2018-04-25T00:20:42.042Z,6.60
2018-04-25T00:21:42.267Z,6.10
2018-04-25T00:22:42.487Z,4.90
2018-04-25T00:23:42.689Z,4.80
2018-04-25T00:24:42.902Z,6.60
2018-04-25T00:25:43.117Z,6.10
2018-04-25T00:26:43.326Z,4.80
2018-04-25T00:27:43.541Z,6.40
2018-04-25T00:28:45.579Z,6.40
2018-04-25T00:29:43.907Z,6.40
2018-04-25T00:30:44.139Z,6.40
2018-04-25T00:31:44.341Z,6.30
2018-04-25T00:32:44.546Z,6.00
2018-04-25T00:33:44.762Z,5.90
2018-04-25T00:34:46.577Z,5.60
2018-04-25T00:35:45.154Z,4.70
2018-04-25T00:36:45.374Z,5.80
2018-04-25T00:37:45.603Z,5.70
2018-04-25T00:38:45.807Z,5.90
2018-04-25T00:39:49.577Z,5.40
2018-04-25T00:40:46.163Z,6.20
2018-04-25T00:41:46.389Z,5.90
2018-04-25T00:42:46.596Z,5.40
2018-04-25T00:43:46.814Z,6.00
2018-04-25T00:44:48.573Z,5.40
2018-04-25T00:45:47.235Z,6.40
2018-04-25T00:46:47.377Z,6.40
2018-04-25T00:47:47.587Z,4.90
2018-04-25T00:48:47.795Z,5.50
2018-04-25T00:49:48.014Z,6.60
2018-04-25T00:50:48.255Z,5.20
2018-04-25T00:51:48.447Z,5.50
2018-04-25T00:52:48.665Z,4.70
2018-04-25T00:53:50.579Z,5.50
2018-04-25T00:54:49.043Z,6.10
2018-04-25T00:55:49.262Z,5.10
2018-04-25T00:56:49.467Z,6.60
2018-04-25T00:57:49.690Z,6.00
2018-04-25T00:58:49.900Z,5.90
2018-04-25T00:59:52.093Z,6.60
2018-04-25T01:00:50.291Z,5.30
2018-04-25T01:01:50.502Z,6.70
2018-04-25T01:02:53.019Z,6.10
2018-04-25T01:03:50.873Z,5.70
2018-04-25T01:04:51.088Z,6.60
2018-04-25T01:05:51.302Z,6.50
2018-04-25T01:06:51.521Z,5.80
2018-04-25T01:07:51.725Z,6.40
2018-04-25T01:08:51.936Z,5.20
2018-04-25T01:09:52.143Z,4.30
2018-04-25T01:10:52.399Z,7.50
2018-04-25T01:11:52.674Z,5.10
2018-04-25T01:12:52.797Z,7.10
2018-04-25T01:13:53.014Z,7.50
2018-04-25T01:14:53.226Z,6.80
2018-04-25T01:15:53.431Z,8.00
2018-04-25T01:16:53.665Z,6.00
2018-04-25T01:17:53.874Z,6.40
2018-04-25T01:18:54.071Z,7.60
2018-04-25T01:19:54.282Z,7.50
2018-04-25T01:20:54.488Z,7.10
2018-04-25T01:21:54.697Z,5.50
2018-04-25T01:22:54.914Z,6.30
2018-04-25T01:23:55.127Z,6.20
2018-04-25T01:24:58.082Z,5.00
2018-04-25T01:25:55.547Z,6.00
2018-04-25T01:26:55.757Z,6.90
2018-04-25T01:27:55.977Z,6.60
2018-04-25T01:28:56.188Z,6.60
2018-04-25T01:29:56.394Z,5.60
2018-04-25T01:30:56.612Z,6.80
2018-04-25T01:31:56.827Z,5.50
2018-04-25T01:32:57.041Z,5.10
2018-04-25T01:33:57.257Z,6.60
2018-04-25T01:34:57.478Z,4.90
2018-04-25T01:35:57.705Z,6.20
2018-04-25T01:36:57.912Z,6.00
2018-04-25T01:37:58.117Z,6.30
2018-04-25T01:38:58.333Z,5.30
2018-04-25T01:39:58.543Z,5.50
2018-04-25T01:40:58.752Z,5.70
2018-04-25T01:41:58.971Z,6.80
2018-04-25T01:42:59.178Z,7.00
2018-04-25T01:44:01.079Z,7.40
2018-04-25T01:44:59.544Z,4.70
2018-04-25T01:45:59.749Z,5.70
2018-04-25T01:46:59.964Z,5.80
2018-04-25T01:48:00.186Z,5.10
2018-04-25T01:49:00.395Z,6.80
2018-04-25T01:50:00.613Z,7.00
2018-04-25T01:51:00.837Z,7.20
2018-04-25T01:52:01.034Z,7.10
2018-04-25T01:53:03.086Z,7.30
2018-04-25T01:54:01.428Z,5.10
2018-04-25T01:55:01.642Z,6.90
2018-04-25T01:56:01.854Z,4.90
2018-04-25T01:57:02.066Z,6.30
2018-04-25T01:58:04.077Z,6.60
2018-04-25T01:59:02.411Z,5.10
2018-04-25T02:00:02.628Z,5.60
2018-04-25T02:01:02.890Z,5.70
2018-04-25T02:02:03.048Z,9.10
2018-04-25T02:03:03.262Z,7.40
2018-04-25T02:04:03.489Z,6.00
2018-04-25T02:05:03.687Z,7.30
2018-04-25T02:06:03.907Z,5.80
2018-04-25T02:07:06.076Z,5.70
2018-04-25T02:08:04.291Z,5.50
2018-04-25T02:09:04.505Z,5.70
2018-04-25T02:10:04.711Z,5.50
2018-04-25T02:11:04.916Z,7.90
2018-04-25T02:12:05.145Z,5.80
2018-04-25T02:13:05.348Z,5.70
2018-04-25T02:14:05.560Z,6.40
2018-04-25T02:15:05.776Z,7.10
2018-04-25T02:16:05.980Z,6.90
2018-04-25T02:17:06.190Z,6.70
2018-04-25T02:18:06.417Z,7.30
2018-04-25T02:19:08.585Z,6.80
2018-04-25T02:20:06.804Z,7.30
2018-04-25T02:21:07.023Z,5.90
2018-04-25T02:22:07.228Z,6.40
2018-04-25T02:23:11.076Z,6.30
2018-04-25T02:24:07.654Z,6.00
2018-04-25T02:25:07.895Z,6.90
2018-04-25T02:26:08.073Z,7.30
2018-04-25T02:27:08.290Z,8.30
2018-04-25T02:28:08.498Z,6.10
2018-04-25T02:29:08.726Z,6.80
2018-04-25T02:30:08.930Z,7.00
2018-04-25T02:31:09.143Z,6.30
2018-04-25T02:32:12.083Z,6.80
2018-04-25T02:33:09.544Z,6.30
2018-04-25T02:34:09.772Z,7.30
2018-04-25T02:35:09.962Z,6.70
2018-04-25T02:36:10.175Z,6.90
2018-04-25T02:37:12.081Z,6.00
2018-04-25T02:38:12.083Z,6.10
2018-04-25T02:39:10.683Z,7.10
2018-04-25T02:40:10.891Z,6.30
2018-04-25T02:41:11.101Z,6.00
2018-04-25T02:42:11.312Z,7.30
2018-04-25T02:43:11.525Z,6.60
2018-04-25T02:44:11.732Z,7.90
2018-04-25T02:45:11.947Z,6.20
2018-04-25T02:46:12.156Z,7.20
2018-04-25T02:47:14.081Z,6.50
2018-04-25T02:48:14.088Z,7.30
2018-04-25T02:49:12.666Z,6.00
2018-04-25T02:50:12.885Z,7.10
2018-04-25T02:51:13.092Z,6.30
2018-04-25T02:52:13.305Z,8.30
2018-04-25T02:53:13.563Z,6.00
2018-04-25T02:54:13.727Z,6.90
2018-04-25T02:55:15.580Z,6.80
2018-04-25T02:56:14.180Z,7.70
2018-04-25T02:57:14.387Z,6.10
2018-04-25T02:58:14.601Z,6.00
2018-04-25T02:59:14.827Z,8.10
2018-04-25T03:00:15.019Z,6.80
2018-04-25T03:01:15.231Z,7.40
2018-04-25T03:02:15.439Z,5.90
2018-04-25T03:03:15.648Z,8.70
2018-04-25T03:04:15.875Z,7.90
2018-04-25T03:05:16.073Z,8.20
2018-04-25T03:06:16.294Z,8.60
2018-04-25T03:07:16.524Z,6.00
2018-04-25T03:08:16.720Z,7.30
2018-04-25T03:09:16.942Z,6.90
2018-04-25T03:10:19.083Z,12.10
2018-04-25T03:11:17.291Z,6.40
2018-04-25T03:12:17.518Z,6.90
2018-04-25T03:13:17.765Z,7.60
2018-04-25T03:14:19.579Z,7.10
2018-04-25T03:15:20.089Z,8.10
2018-04-25T03:16:18.311Z,8.70
2018-04-25T03:17:18.531Z,7.60
2018-04-25T03:18:18.725Z,8.40
2018-04-25T03:19:20.590Z,7.50
2018-04-25T03:20:19.174Z,6.20
2018-04-25T03:21:19.396Z,7.90
2018-04-25T03:22:19.605Z,8.70
2018-04-25T03:23:21.580Z,7.50
2018-04-25T03:24:21.592Z,7.40
2018-04-25T03:25:20.170Z,8.80
2018-04-25T03:26:20.400Z,7.20
2018-04-25T03:27:20.607Z,7.00
2018-04-25T03:28:20.827Z,7.50
2018-04-25T03:29:21.041Z,7.10
2018-04-25T03:30:21.247Z,8.30
2018-04-25T03:31:21.466Z,8.10
2018-04-25T03:32:21.695Z,7.10
2018-04-25T03:33:21.895Z,7.50
2018-04-25T03:34:24.085Z,9.80
2018-04-25T03:35:22.297Z,8.70
2018-04-25T03:36:22.513Z,8.20
2018-04-25T03:37:22.733Z,7.00
2018-04-25T03:38:24.578Z,7.70
2018-04-25T03:39:25.080Z,7.30
2018-04-25T03:40:25.082Z,7.30
2018-04-25T03:41:23.438Z,6.70
2018-04-25T03:42:23.636Z,8.10
2018-04-25T03:43:23.842Z,8.50
2018-04-25T03:44:24.058Z,7.20
2018-04-25T03:45:24.286Z,8.10
2018-04-25T03:46:24.380Z,6.90
2018-04-25T03:47:24.606Z,9.50
2018-04-25T03:48:24.822Z,9.10
2018-04-25T03:49:25.029Z,7.80
2018-04-25T03:50:25.282Z,10.10
2018-04-25T03:51:25.479Z,7.60
2018-04-25T03:52:27.587Z,8.00
2018-04-25T03:53:25.933Z,8.10
2018-04-25T03:54:26.146Z,7.30
2018-04-25T03:55:26.354Z,8.80
2018-04-25T03:56:26.566Z,8.70
2018-04-25T03:57:28.583Z,7.90
2018-04-25T03:58:28.594Z,8.20
2018-04-25T03:59:27.053Z,8.40
2018-04-25T04:00:27.256Z,8.70
2018-04-25T04:01:27.473Z,8.00
2018-04-25T04:02:27.682Z,9.40
2018-04-25T04:03:27.893Z,8.20
2018-04-25T04:04:28.110Z,7.00
2018-04-25T04:05:28.323Z,6.80
2018-04-25T04:06:30.086Z,8.40
2018-04-25T04:07:28.659Z,9.50
2018-04-25T04:08:28.860Z,8.00
2018-04-25T04:09:29.073Z,7.70
2018-04-25T04:10:29.284Z,7.90
2018-04-25T04:11:29.501Z,8.90
2018-04-25T04:12:29.721Z,8.90
2018-04-25T04:13:29.931Z,8.40
2018-04-25T04:14:30.147Z,9.40
2018-04-25T04:15:30.362Z,8.70
2018-04-25T04:16:30.565Z,8.20
2018-04-25T04:17:30.797Z,7.90
2018-04-25T04:18:32.583Z,9.20
2018-04-25T04:19:32.507Z,10.40
2018-04-25T04:20:33.080Z,8.10
2018-04-25T04:21:31.546Z,8.30
2018-04-25T04:22:36.584Z,8.60
2018-04-25T04:23:33.589Z,7.60
2018-04-25T04:24:32.044Z,8.20
2018-04-25T04:25:32.269Z,7.60
2018-04-25T04:26:32.486Z,9.90
2018-04-25T04:27:32.689Z,8.60
2018-04-25T04:28:32.891Z,7.20
2018-04-25T04:29:33.104Z,7.60
2018-04-25T04:30:33.318Z,9.70
2018-04-25T04:31:33.524Z,8.90
2018-04-25T04:32:33.728Z,7.80
2018-04-25T04:33:33.944Z,8.00
2018-04-25T04:34:34.161Z,8.10
2018-04-25T04:35:36.075Z,7.90
2018-04-25T04:36:34.537Z,10.20
2018-04-25T04:37:34.739Z,7.40
2018-04-25T04:38:34.946Z,7.10
2018-04-25T04:39:35.170Z,7.40
2018-04-25T04:40:35.375Z,8.20
2018-04-25T04:41:35.588Z,8.20
2018-04-25T04:42:35.796Z,8.00
2018-04-25T04:43:37.601Z,7.10
2018-04-25T04:44:36.186Z,8.40
2018-04-25T04:45:36.381Z,7.40
2018-04-25T04:46:40.580Z,7.90
2018-04-25T04:47:36.806Z,7.00
2018-04-25T04:48:37.017Z,8.00
2018-04-25T04:49:37.307Z,8.90
2018-04-25T04:50:39.082Z,6.60
2018-04-25T04:51:37.671Z,9.30
2018-04-25T04:52:37.880Z,7.00
2018-04-25T04:53:38.103Z,7.40
2018-04-25T04:54:38.323Z,9.20
2018-04-25T04:55:38.534Z,8.20
2018-04-25T04:56:40.594Z,11.00
2018-04-25T04:57:38.936Z,8.40
2018-04-25T04:58:39.159Z,8.50
2018-04-25T04:59:39.392Z,7.90
2018-04-25T05:00:39.581Z,9.40
2018-04-25T05:01:39.801Z,7.10
2018-04-25T05:02:40.019Z,7.50
2018-04-25T05:03:40.243Z,7.20
2018-04-25T05:04:40.456Z,9.60
2018-04-25T05:05:40.667Z,7.70
2018-04-25T05:06:40.881Z,8.50
2018-04-25T05:07:42.582Z,7.30
2018-04-25T05:08:57.080Z,8.00
2018-04-25T05:09:41.538Z,7.50
2018-04-25T05:10:41.771Z,8.00
2018-04-25T05:11:41.976Z,8.30
2018-04-25T05:12:42.200Z,8.20
2018-04-25T05:13:42.400Z,6.90
2018-04-25T05:14:42.611Z,8.20
2018-04-25T05:15:42.835Z,9.20
2018-04-25T05:16:43.034Z,6.60
2018-04-25T05:17:43.245Z,7.40
2018-04-25T05:18:43.466Z,7.40
2018-04-25T05:19:43.673Z,9.30
2018-04-25T05:20:43.890Z,7.70
2018-04-25T05:21:44.106Z,8.80
2018-04-25T05:22:44.322Z,6.90
2018-04-25T05:23:46.087Z,8.60
2018-04-25T05:24:44.764Z,6.80
2018-04-25T05:25:44.884Z,7.30
2018-04-25T05:26:45.094Z,7.20
2018-04-25T05:27:47.087Z,7.50
2018-04-25T05:28:45.431Z,7.90
2018-04-25T05:29:45.647Z,6.70
2018-04-25T05:30:45.841Z,7.20
2018-04-25T05:31:47.636Z,7.50
2018-04-25T05:32:48.096Z,6.30
2018-04-25T05:33:46.299Z,6.70
2018-04-25T05:34:46.523Z,6.90
2018-04-25T05:35:46.738Z,7.00
2018-04-25T05:36:46.940Z,7.90
2018-04-25T05:37:47.166Z,8.30
2018-04-25T05:38:47.389Z,7.30
2018-04-25T05:39:47.600Z,8.00
2018-04-25T05:40:47.824Z,8.50
2018-04-25T05:41:48.043Z,7.30
2018-04-25T05:42:48.256Z,10.10
2018-04-25T05:43:48.465Z,9.40
2018-04-25T05:44:50.583Z,7.20
2018-04-25T05:45:50.613Z,7.10
2018-04-25T05:46:48.924Z,9.70
2018-04-25T05:47:49.140Z,8.70
2018-04-25T05:48:49.344Z,9.60
2018-04-25T05:49:49.550Z,8.00
2018-04-25T05:50:49.775Z,8.00
2018-04-25T05:51:50.011Z,7.00
2018-04-25T05:52:50.213Z,7.30
2018-04-25T05:53:50.458Z,8.10
2018-04-25T05:54:50.652Z,7.30
2018-04-25T05:55:50.874Z,7.40
2018-04-25T05:56:51.110Z,7.50
2018-04-25T05:57:51.428Z,7.00
2018-04-25T05:58:53.088Z,7.40
2018-04-25T05:59:51.684Z,8.90
2018-04-25T06:00:51.892Z,8.10
2018-04-25T06:01:52.120Z,7.70
2018-04-25T06:02:52.330Z,9.90
2018-04-25T06:03:52.535Z,7.10
2018-04-25T06:04:52.757Z,8.70
2018-04-25T06:05:54.584Z,9.30
2018-04-25T06:06:53.164Z,9.40
2018-04-25T06:07:53.383Z,12.30
2018-04-25T06:08:53.590Z,10.70
2018-04-25T06:09:53.817Z,11.00
2018-04-25T06:10:54.035Z,9.10
2018-04-25T06:11:54.238Z,11.80
2018-04-25T06:12:56.086Z,11.90
2018-04-25T06:13:54.666Z,12.90
2018-04-25T06:14:54.886Z,12.10
2018-04-25T06:15:55.101Z,9.00
2018-04-25T06:16:55.300Z,10.70
2018-04-25T06:17:55.562Z,9.20
2018-04-25T06:18:55.653Z,9.20
2018-04-25T06:19:55.863Z,9.80
2018-04-25T06:20:59.586Z,8.00
2018-04-25T06:21:56.330Z,8.70
2018-04-25T06:22:56.508Z,8.60
2018-04-25T06:23:56.723Z,8.50
2018-04-25T06:24:56.936Z,8.50
2018-04-25T06:25:57.150Z,9.20
2018-04-25T06:26:57.385Z,8.10
2018-04-25T06:27:57.581Z,7.80
2018-04-25T06:28:57.788Z,8.40
2018-04-25T06:29:59.588Z,8.20
2018-04-25T06:30:58.177Z,7.10
2018-04-25T06:31:58.406Z,8.60
2018-04-25T06:32:58.611Z,8.00
2018-04-25T06:33:58.830Z,7.80
2018-04-25T06:34:59.049Z,9.00
2018-04-25T06:35:59.257Z,7.10
2018-04-25T06:36:59.468Z,9.10
2018-04-25T06:37:59.690Z,8.90
2018-04-25T06:38:59.902Z,6.90
2018-04-25T06:40:02.091Z,8.40
2018-04-25T06:41:00.307Z,8.50
2018-04-25T06:42:00.503Z,7.40
2018-04-25T06:43:00.738Z,8.40
2018-04-25T06:44:00.949Z,7.20
2018-04-25T06:45:01.268Z,8.10
2018-04-25T06:46:01.397Z,7.30
2018-04-25T06:47:03.632Z,8.30
2018-04-25T06:48:09.583Z,9.00
2018-04-25T06:49:01.927Z,7.20
2018-04-25T06:50:02.144Z,8.10
2018-04-25T06:51:02.399Z,9.00
2018-04-25T06:52:02.587Z,7.10
2018-04-25T06:53:02.797Z,7.80
2018-04-25T06:54:03.023Z,7.70
2018-04-25T06:55:05.088Z,9.50
2018-04-25T06:56:03.423Z,7.90
2018-04-25T06:57:05.589Z,7.50
2018-04-25T06:58:03.809Z,8.30
2018-04-25T06:59:04.017Z,7.50
2018-04-25T07:00:04.232Z,8.40
2018-04-25T07:01:04.438Z,7.50
2018-04-25T07:02:04.663Z,8.20
2018-04-25T07:03:04.875Z,7.70
2018-04-25T07:04:05.083Z,7.80
2018-04-25T07:05:05.303Z,7.50
2018-04-25T07:06:05.512Z,7.70
2018-04-25T07:07:05.748Z,7.60
2018-04-25T07:08:05.852Z,8.20
2018-04-25T07:09:06.052Z,8.00
2018-04-25T07:10:06.267Z,7.70
2018-04-25T07:11:08.092Z,8.20
2018-04-25T07:12:06.674Z,9.40
2018-04-25T07:13:06.901Z,8.70
2018-04-25T07:14:07.187Z,9.90
2018-04-25T07:15:07.328Z,9.60
2018-04-25T07:16:07.543Z,8.10
2018-04-25T07:17:07.754Z,7.90
2018-04-25T07:18:07.971Z,7.80
2018-04-25T07:19:08.196Z,8.70
2018-04-25T07:20:08.409Z,9.70
2018-04-25T07:21:08.634Z,8.40
2018-04-25T07:22:12.597Z,8.90
2018-04-25T07:23:09.051Z,8.20
2018-04-25T07:24:09.269Z,7.60
2018-04-25T07:25:09.477Z,9.00
2018-04-25T07:26:11.585Z,8.60
2018-04-25T07:27:11.639Z,8.50
2018-04-25T07:28:10.084Z,9.30
2018-04-25T07:29:10.316Z,9.20
2018-04-25T07:30:10.423Z,8.70
2018-04-25T07:31:10.637Z,8.30
2018-04-25T07:32:12.640Z,11.00
2018-04-25T07:33:11.043Z,8.90
2018-04-25T07:34:11.266Z,9.40
2018-04-25T07:35:11.482Z,8.70
2018-04-25T07:36:13.598Z,8.20
2018-04-25T07:37:11.839Z,8.70
2018-04-25T07:38:12.068Z,8.70
2018-04-25T07:39:12.269Z,10.90
2018-04-25T07:40:12.486Z,8.10
2018-04-25T07:41:12.699Z,7.90
2018-04-25T07:42:12.910Z,9.20
2018-04-25T07:43:13.136Z,8.30
2018-04-25T07:44:13.377Z,9.50
2018-04-25T07:45:13.569Z,8.00
2018-04-25T07:46:13.780Z,8.60
2018-04-25T07:47:13.993Z,8.70
2018-04-25T07:48:14.206Z,7.80
2018-04-25T07:49:14.417Z,9.00
2018-04-25T07:50:14.625Z,9.90
2018-04-25T07:51:16.594Z,9.30
2018-04-25T07:52:16.678Z,7.90
2018-04-25T07:53:15.179Z,9.00
2018-04-25T07:54:15.405Z,8.60
2018-04-25T07:55:15.623Z,9.40
2018-04-25T07:56:15.835Z,8.30
2018-04-25T07:57:16.045Z,9.20
2018-04-25T07:58:16.255Z,7.20
2018-04-25T07:59:16.471Z,8.10
2018-04-25T08:00:16.681Z,8.70
2018-04-25T08:01:16.888Z,9.30
2018-04-25T08:02:17.103Z,9.30
2018-04-25T08:03:17.311Z,9.00
2018-04-25T08:04:17.531Z,10.80
2018-04-25T08:05:17.751Z,10.60
2018-04-25T08:06:17.955Z,11.40
2018-04-25T08:07:18.168Z,9.20
2018-04-25T08:08:20.101Z,10.60
2018-04-25T08:09:20.094Z,8.70
2018-04-25T08:10:18.686Z,9.00
2018-04-25T08:11:18.907Z,8.80
2018-04-25T08:12:19.170Z,10.10
2018-04-25T08:13:19.335Z,9.30
2018-04-25T08:14:19.554Z,9.30
2018-04-25T08:15:19.756Z,9.40
2018-04-25T08:16:19.973Z,8.40
2018-04-25T08:17:20.178Z,8.60
2018-04-25T08:18:20.387Z,7.20
2018-04-25T08:19:20.605Z,7.90
2018-04-25T08:20:20.812Z,9.40
2018-04-25T08:21:21.020Z,8.70
2018-04-25T08:22:21.237Z,9.40
2018-04-25T08:23:21.451Z,9.80
2018-04-25T08:24:21.676Z,7.50
2018-04-25T08:25:21.885Z,10.90
2018-04-25T08:26:22.100Z,8.50
2018-04-25T08:27:22.308Z,6.90
2018-04-25T08:28:24.093Z,8.10
2018-04-25T08:29:22.688Z,7.40
2018-04-25T08:30:22.921Z,7.30
2018-04-25T08:31:25.095Z,7.20
2018-04-25T08:32:23.316Z,7.40
2018-04-25T08:33:25.111Z,7.90
2018-04-25T08:34:23.736Z,6.80
2018-04-25T08:35:23.895Z,9.00
2018-04-25T08:36:24.108Z,7.50
2018-04-25T08:37:24.330Z,6.50
2018-04-25T08:38:28.090Z,8.10
2018-04-25T08:39:26.597Z,6.40
2018-04-25T08:40:24.816Z,6.60
2018-04-25T08:41:25.048Z,6.10
2018-04-25T08:42:26.242Z,7.80
2018-04-25T08:43:27.112Z,6.00
2018-04-25T08:44:25.710Z,7.20
2018-04-25T08:45:30.605Z,6.80
2018-04-25T08:46:26.076Z,8.30
2018-04-25T08:47:26.321Z,6.90
2018-04-25T08:48:28.129Z,7.30
2018-04-25T08:49:26.556Z,10.20
2018-04-25T08:50:26.772Z,7.00
2018-04-25T08:51:27.007Z,6.80
2018-04-25T08:52:27.227Z,7.70
2018-04-25T08:53:27.449Z,7.70
2018-04-25T08:54:27.697Z,6.80
2018-04-25T08:55:27.808Z,6.60
2018-04-25T08:56:28.032Z,9.20
2018-04-25T08:57:28.291Z,7.90
2018-04-25T08:58:28.467Z,6.00
2018-04-25T08:59:28.704Z,9.30
2018-04-25T09:00:28.932Z,7.40
2018-04-25T09:01:29.140Z,6.40
2018-04-25T09:02:29.364Z,6.50
2018-04-25T09:03:29.576Z,6.20
2018-04-25T09:04:29.787Z,7.80
2018-04-25T09:05:30.016Z,7.50
2018-04-25T09:06:30.280Z,8.60
2018-04-25T09:07:30.447Z,7.50
2018-04-25T09:08:30.673Z,6.90
2018-04-25T09:09:30.883Z,5.70
2018-04-25T09:10:31.103Z,6.50
2018-04-25T09:11:33.095Z,6.30
2018-04-25T09:12:31.430Z,7.20
2018-04-25T09:13:31.661Z,7.10
2018-04-25T09:14:31.883Z,5.90
2018-04-25T09:15:32.104Z,6.50
2018-04-25T09:16:32.310Z,5.50
2018-04-25T09:17:32.525Z,7.10
2018-04-25T09:18:34.602Z,5.70
2018-04-25T09:19:32.944Z,8.10
2018-04-25T09:20:33.153Z,8.10
2018-04-25T09:21:33.360Z,6.60
2018-04-25T09:22:33.570Z,7.00
2018-04-25T09:23:33.798Z,7.20
2018-04-25T09:24:34.047Z,6.00
2018-04-25T09:25:34.250Z,6.30
2018-04-25T09:26:34.480Z,5.80
2018-04-25T09:27:34.705Z,5.60
2018-04-25T09:28:34.920Z,4.70
2018-04-25T09:29:35.151Z,5.50
2018-04-25T09:30:35.377Z,5.90
2018-04-25T09:31:35.587Z,5.70
2018-04-25T09:32:35.808Z,7.80
2018-04-25T09:33:36.019Z,5.80
2018-04-25T09:34:36.229Z,7.00
2018-04-25T09:35:38.110Z,5.10
2018-04-25T09:36:36.578Z,6.00
2018-04-25T09:37:36.806Z,5.80
2018-04-25T09:38:37.017Z,7.40
2018-04-25T09:39:37.232Z,6.60
2018-04-25T09:40:37.453Z,4.50
2018-04-25T09:41:39.617Z,4.90
2018-04-25T09:42:37.837Z,5.20
2018-04-25T09:43:38.065Z,8.70
2018-04-25T09:44:38.279Z,4.60
2018-04-25T09:45:38.503Z,7.40
2018-04-25T09:46:38.729Z,4.60
2018-04-25T09:47:38.939Z,6.90
2018-04-25T09:48:39.163Z,8.20
2018-04-25T09:49:41.098Z,6.20
2018-04-25T09:50:39.554Z,6.60
2018-04-25T09:51:39.771Z,8.10
2018-04-25T09:52:39.985Z,7.00
2018-04-25T09:53:40.194Z,7.00
2018-04-25T09:54:40.416Z,5.80
2018-04-25T09:55:42.608Z,5.90
2018-04-25T09:56:40.811Z,6.20
2018-04-25T09:57:41.117Z,8.80
2018-04-25T09:58:41.249Z,6.60
2018-04-25T09:59:41.468Z,5.50
2018-04-25T10:00:45.621Z,7.60
2018-04-25T10:01:41.828Z,6.40
2018-04-25T10:02:42.056Z,4.80
2018-04-25T10:03:42.279Z,5.20
2018-04-25T10:04:42.492Z,6.00
2018-04-25T10:05:42.705Z,6.40
2018-04-25T10:06:42.930Z,4.30
2018-04-25T10:07:43.166Z,4.40
2018-04-25T10:08:43.364Z,6.10
2018-04-25T10:09:43.580Z,5.10
2018-04-25T10:10:43.889Z,6.40
2018-04-25T10:11:44.014Z,8.40
2018-04-25T10:12:44.222Z,6.20
2018-04-25T10:13:44.448Z,5.30
2018-04-25T10:14:44.689Z,6.70
2018-04-25T10:15:46.604Z,6.60
2018-04-25T10:16:45.072Z,4.50
2018-04-25T10:17:47.112Z,5.70
2018-04-25T10:18:45.473Z,5.10
2018-04-25T10:19:47.106Z,5.10
2018-04-25T10:20:46.779Z,4.70
2018-04-25T10:21:47.615Z,3.60
2018-04-25T10:22:48.112Z,3.50
2018-04-25T10:23:46.454Z,4.70
2018-04-25T10:24:47.688Z,4.50
2018-04-25T10:25:48.609Z,3.50
2018-04-25T10:26:48.601Z,3.60
2018-04-25T10:27:47.196Z,3.20
2018-04-25T10:28:48.447Z,2.70
2018-04-25T10:29:48.599Z,12.20
2018-04-25T10:30:47.863Z,3.60
2018-04-25T10:31:47.982Z,3.20
2018-04-25T10:32:48.208Z,4.40
2018-04-25T10:33:48.425Z,3.80
2018-04-25T10:34:48.649Z,6.80
2018-04-25T10:35:48.878Z,3.60
2018-04-25T10:36:50.092Z,2.50
2018-04-25T10:37:49.313Z,4.50
2018-04-25T10:38:49.612Z,3.10
2018-04-25T10:39:53.638Z,3.10
2018-04-25T10:40:49.998Z,4.60
2018-04-25T10:41:50.093Z,3.60
2018-04-25T10:42:52.125Z,4.40
2018-04-25T10:43:50.466Z,4.50
2018-04-25T10:44:50.683Z,4.10
2018-04-25T10:45:52.603Z,3.40
2018-04-25T10:46:52.616Z,5.30
2018-04-25T10:47:52.231Z,3.10
2018-04-25T10:48:51.367Z,2.90
2018-04-25T10:49:51.479Z,4.00
2018-04-25T10:50:51.692Z,2.60
2018-04-25T10:51:51.926Z,3.20
2018-04-25T10:52:56.103Z,2.70
2018-04-25T10:53:54.118Z,4.40
2018-04-25T10:54:54.106Z,3.80
2018-04-25T10:55:56.605Z,4.00
2018-04-25T10:56:52.816Z,3.20
2018-04-25T10:57:54.609Z,3.10
2018-04-25T10:58:53.205Z,3.40
2018-04-25T10:59:55.105Z,3.90
2018-04-25T11:00:53.572Z,2.80
2018-04-25T11:01:53.792Z,3.00
2018-04-25T11:02:54.032Z,3.70
2018-04-25T11:03:54.132Z,4.00
2018-04-25T11:04:55.368Z,3.70
2018-04-25T11:05:54.608Z,3.10
2018-04-25T11:06:54.824Z,5.20
2018-04-25T11:07:55.054Z,5.50
2018-04-25T11:08:55.275Z,4.30
2018-04-25T11:09:55.488Z,6.10
2018-04-25T11:10:55.714Z,7.40
2018-04-25T11:11:59.617Z,5.20
2018-04-25T11:12:56.093Z,6.00
2018-04-25T11:13:56.336Z,6.50
2018-04-25T11:14:56.533Z,6.60
2018-04-25T11:15:56.747Z,3.90
2018-04-25T11:16:56.969Z,3.50
2018-04-25T11:17:57.181Z,6.10
2018-04-25T11:18:57.409Z,3.20
2018-04-25T11:19:59.622Z,3.30
2018-04-25T11:20:57.838Z,3.40
2018-04-25T11:21:58.065Z,3.70
2018-04-25T11:22:58.295Z,3.60
2018-04-25T11:23:58.517Z,3.30
2018-04-25T11:25:00.690Z,2.70
2018-04-25T11:25:58.945Z,2.50
2018-04-25T11:26:59.181Z,3.20
2018-04-25T11:27:59.387Z,3.00
2018-04-25T11:29:01.113Z,4.40
2018-04-25T11:29:59.838Z,2.70
2018-04-25T11:31:00.054Z,2.60
2018-04-25T11:32:00.354Z,3.70
2018-04-25T11:33:00.506Z,4.10
2018-04-25T11:34:00.717Z,3.30
2018-04-25T11:35:00.991Z,4.90
2018-04-25T11:36:01.175Z,3.00
2018-04-25T11:37:01.380Z,3.30
2018-04-25T11:38:01.600Z,3.70
2018-04-25T11:39:01.828Z,3.10
2018-04-25T11:40:02.029Z,3.50
2018-04-25T11:41:02.252Z,2.70
2018-04-25T11:42:02.476Z,3.10
2018-04-25T11:43:02.696Z,3.00
2018-04-25T11:44:02.919Z,2.90
2018-04-25T11:45:05.109Z,3.40
2018-04-25T11:46:03.319Z,3.40
2018-04-25T11:47:03.566Z,3.10
2018-04-25T11:48:03.753Z,5.10
2018-04-25T11:49:03.961Z,2.30
2018-04-25T11:50:04.183Z,3.70
2018-04-25T11:51:04.396Z,3.10
2018-04-25T11:52:04.619Z,2.80
2018-04-25T11:53:04.835Z,2.70
2018-04-25T11:54:05.052Z,2.70
2018-04-25T11:55:05.273Z,2.80
2018-04-25T11:56:07.111Z,3.30
2018-04-25T11:57:07.639Z,4.60
2018-04-25T11:58:05.831Z,3.60
2018-04-25T11:59:07.613Z,3.50
2018-04-25T12:00:06.209Z,3.00
2018-04-25T12:01:06.432Z,4.30
2018-04-25T12:02:06.646Z,5.20
2018-04-25T12:03:06.872Z,4.40
2018-04-25T12:04:07.106Z,4.60
2018-04-25T12:05:07.343Z,3.10
2018-04-25T12:06:07.548Z,3.80
2018-04-25T12:07:09.652Z,3.40
2018-04-25T12:08:07.958Z,4.20
2018-04-25T12:09:10.112Z,2.70
2018-04-25T12:10:08.321Z,4.80
2018-04-25T12:11:10.113Z,4.30
2018-04-25T12:12:08.710Z,2.70
2018-04-25T12:13:08.991Z,3.60
2018-04-25T12:14:09.133Z,2.50
2018-04-25T12:15:09.343Z,3.00
2018-04-25T12:16:09.568Z,2.40
2018-04-25T12:17:09.801Z,3.20
2018-04-25T12:18:10.015Z,2.70
2018-04-25T12:19:10.255Z,3.40
2018-04-25T12:20:10.466Z,2.80
2018-04-25T12:21:10.696Z,2.60
2018-04-25T12:22:10.919Z,2.60
2018-04-25T12:23:11.181Z,2.70
2018-04-25T12:24:13.130Z,3.40
2018-04-25T12:25:13.126Z,2.60
2018-04-25T12:26:11.734Z,2.50
2018-04-25T12:27:11.946Z,2.40
2018-04-25T12:28:14.116Z,2.60
2018-04-25T12:29:14.119Z,2.90
2018-04-25T12:30:12.464Z,3.60
2018-04-25T12:31:12.684Z,5.10
2018-04-25T12:32:12.903Z,6.30
2018-04-25T12:33:13.123Z,7.20
2018-04-25T12:34:13.355Z,4.50
2018-04-25T12:35:16.115Z,2.40
2018-04-25T12:36:13.714Z,3.70
2018-04-25T12:37:13.934Z,5.10
2018-04-25T12:38:14.149Z,8.40
2018-04-25T12:39:16.112Z,5.30
2018-04-25T12:40:14.597Z,3.20
2018-04-25T12:41:14.793Z,2.70
2018-04-25T12:42:15.014Z,2.80
2018-04-25T12:43:15.231Z,2.80
2018-04-25T12:44:15.457Z,10.50
2018-04-25T12:45:15.672Z,8.80
2018-04-25T12:46:15.900Z,5.70
2018-04-25T12:47:16.189Z,3.10
2018-04-25T12:48:18.120Z,3.30
2018-04-25T12:49:16.462Z,2.70
2018-04-25T12:50:20.612Z,3.00
2018-04-25T12:51:16.821Z,2.50
2018-04-25T12:52:17.041Z,2.90
2018-04-25T12:53:17.263Z,2.90
2018-04-25T12:54:17.468Z,2.50
2018-04-25T12:55:17.701Z,2.60
2018-04-25T12:56:17.905Z,2.60
2018-04-25T12:57:18.116Z,2.60
2018-04-25T12:58:18.341Z,2.70
2018-04-25T12:59:18.545Z,2.10
2018-04-25T13:00:18.762Z,2.10
2018-04-25T13:01:20.612Z,2.50
2018-04-25T13:02:19.229Z,2.30
2018-04-25T13:03:19.426Z,2.30
2018-04-25T13:04:19.648Z,2.80
2018-04-25T13:05:19.862Z,2.20
2018-04-25T13:06:20.081Z,2.50
2018-04-25T13:07:20.289Z,2.20
2018-04-25T13:08:20.512Z,2.00
2018-04-25T13:09:20.719Z,2.50
2018-04-25T13:10:20.969Z,2.70
2018-04-25T13:11:25.119Z,2.50
2018-04-25T13:12:21.334Z,2.70
2018-04-25T13:13:21.547Z,2.70
2018-04-25T13:14:21.769Z,2.80
2018-04-25T13:15:21.976Z,2.40
2018-04-25T13:16:24.114Z,2.50
2018-04-25T13:17:22.339Z,2.50
2018-04-25T13:18:26.130Z,2.40
2018-04-25T13:19:22.720Z,2.80
2018-04-25T13:20:26.621Z,2.30